LIRPLIRA

Guest
Details From LIRP - Pisa
To LIRA - Ciampino
Flight Number -
Tags Generated
Created
Modified
Stats Distance 148 nm / 275 km
Max Altitude 0 ft / 0 m
Waypoints 2
Social Downloads 3
Likes 0
Share VATSIM

Download

Looking for another format? Having issues loading an existing format? Contact us
Advertisement - Login to hide

Notes

Generated

Route

LIRP LIRA

ID Type Via Altitude Latitude Longitude Leg Dist Tot Dist Heading (true) Name
O LIRP APT - 0 ft / 0 m 43.67384˚ 10.38072˚ - 0 nm - -
O LIRA APT - 0 ft / 0 m 41.80806˚ 12.58883˚ 148 nm 148 nm 138° / 140° -

Altitude Profile

Advertisement - Login to hide

LIRP

Details ICAO LIRP (PSA)
Name PISA
Region Italy
Timezone Europe/Rome (UTC+2.0)
Stats Elevation 6 ft / 2 m (AMSL)
Location 43.683883° 10.392724°
Runways 2
Magnetic Variation 2.753° E

METAR

LIRP 261515Z 31007KT 9999 FEW030TCU 27/18 Q1017 TEMPO RMK CB

Decode

TAF

TAF LIRP 261100Z 2612/2712 VRB05KT CAVOK PROB40 TEMPO 2701/2706 4000 BR

Decode

Departure Runways

ID Width Length Bearing (true) Bearing (mag) Surface Threshold Offset Overrun Length
04L 141 ft / 43 m 9,158 ft / 2,791 m 36.70° 33.95° Asphalt 979 ft / 298 m 0 ft / 0 m
04R 148 ft / 45 m 9,819 ft / 2,993 m 36.72° 33.97° Asphalt 490 ft / 149 m 0 ft / 0 m
22L 148 ft / 45 m 9,819 ft / 2,993 m 216.73° 213.98° Asphalt 843 ft / 257 m 0 ft / 0 m
22R 141 ft / 43 m 9,158 ft / 2,791 m 216.72° 213.97° Asphalt 0 ft / 0 m 0 ft / 0 m

LIRA

Details ICAO LIRA (CIA)
Name CIAMPINO
Region Italy
Timezone Europe/Rome (UTC+2.0)
Stats Elevation 427 ft / 130 m (AMSL)
Location 41.799228° 12.594917°
Runways 1
Magnetic Variation 3.104° E

METAR

LIRA 261520Z 22007KT 180V270 CAVOK 27/16 Q1017

Decode

TAF

TAF LIRA 261100Z 2612/2712 24006KT 9999 SCT030 TEMPO 2612/2616 4000 SHRA TEMPO 2700/2705 2000 BR

Decode

Destination Runways

ID Width Length Bearing (true) Bearing (mag) Surface Threshold Offset Overrun Length
15 154 ft / 47 m 7,246 ft / 2,209 m 152.79° 149.69° Asphalt 0 ft / 0 m 0 ft / 0 m
33 154 ft / 47 m 7,246 ft / 2,209 m 332.80° 329.70° Asphalt 0 ft / 0 m 0 ft / 0 m

Approach Navaids

Runway Type Ident Frequency Range Bearing (true) Bearing (mag) Slope Elevation
15 Localiser CIA 109.90 MHz 18 nm / 33 km 152.81° 149.71° - 426 ft / 130 m (AMSL)
15 Glidescope CIA 109.90 MHz 10 nm / 19 km 152.79° 149.69° 3.00° 384 ft / 117 m (AMSL)

Popular Alternatives